NCAR-RAP Real-Time Weather Data

Output produced by METARs form (12 May 2021  10:52 UTC)
found at http://weather.rap.ucar.edu/surface/
 
KAPA 120953Z 22004KT 10SM SCT120 01/M02 A3026 RMK AO2 SLP266 T00111017
KAPA 120853Z 17008KT 10SM FEW030 SCT120 02/M01 A3026 RMK AO2 SLP266 T00171011 56009
KAPA 120753Z 19006KT 10SM BKN031 BKN120 02/M01 A3027 RMK AO2 SLP261 T00171006
KAPA 120653Z 15006KT 10SM FEW030 SCT060 BKN120 02/M01 A3028 RMK AO2 SLP263 T00221006 400560000
KAPA 120553Z 18005KT 10SM SCT025 SCT050 BKN120 02/00 A3029 RMK AO2 SLP270 T00170000 10044 20017 50001
KAPA 120453Z 00000KT 10SM FEW025 FEW050 FEW110 02/M01 A3030 RMK AO2 SLP275 T00221006
KAPA 120353Z 23005KT 10SM SCT023 SCT045 SCT120 04/00 A3030 RMK AO2 SLP274 T00390000
KAPA 120253Z 19004KT 10SM BKN023 BKN032 04/00 A3029 RMK AO2 SLP268 T00440000 53012
KAPA 120153Z 17004KT 10SM BKN017 BKN030 04/01 A3027 RMK AO2 SLP264 T00440006
KAPA 120138Z 18004KT 10SM BKN017 BKN030 04/01 A3027 RMK AO2 T00440006
KAPA 120053Z 20003KT 10SM BKN012 OVC020 04/01 A3025 RMK AO2 SLP258 T00440011
KAPA 112353Z 20003KT 10SM BKN011 OVC022 04/01 A3025 RMK AO2 SLP259 60015 T00390011 10056 20011 53005
KAPA 112317Z 00000KT 10SM SCT010 BKN015 BKN043 04/01 A3023 RMK AO2 T00390011
KAPA 112253Z 22004KT 7SM BKN007 BKN016 OVC055 03/02 A3023 RMK AO2 RAE36SNE05 SLP258 P0000 T00330017
KAPA 112212Z 00000KT 5SM -RA BR BKN005 OVC015 02/01 A3023 RMK AO2 SNE05 P0000 T00170006
KAPA 112207Z 00000KT 2SM -RA BKN005 OVC015 02/01 A3023 RMK AO2 SFC VIS 8 SNE05 P0000 T00170006
KAPA 112153Z 00000KT 1SM -RASN BR BKN005 OVC015 02/01 A3023 RMK AO2 SFC VIS 3 SLP260 P0006 T00170006
KAPA 112053Z 32004KT 1SM -RASN BR BKN007 OVC012 02/00 A3023 RMK AO2 SFC VIS 1 3/4 RAB1957SNB40 SLP258 P0009 60009 T00170000 53010